< < Back
Terminal Aerodrome Forecast


Current Version              Previous Versions:   1  2  3  4  5  6  7  8  9  

Terminal Aerodrome Forecast

723
FTUS42 KILM 262300 CCA
TAFILM
TAF COR
KILM 262357Z 2700/2724 30009KT P6SM SCT015 BKN025
     FM270100 VRB03KT P6SM FEW025 SCT050
      TEMPO 2705/2709 4SM BR
     FM270900 23006KT P6SM SCT080
     FM271400 28015G22KT P6SM SCT035=



Latest METAR

440
SAUS70 KWBC 270958
MTRILM
METAR KILM 270953Z 00000KT 6SM BR CLR 03/02 A3006 RMK AO2 SLP178
T00280022


USA.gov is the U.S. government's official web portal to all federal, state and local government web resources and services.